createdAt,value
2023-02-09T00:02:18.334Z,102951.13
2023-02-09T00:04:47.099Z,102946.69
2023-02-09T00:07:15.225Z,102939.16
2023-02-09T00:09:45.602Z,102938.91
2023-02-09T00:12:32.102Z,102941.56
2023-02-09T00:15:00.510Z,102935.72
2023-02-09T00:17:28.594Z,102936.53
2023-02-09T00:19:56.971Z,102940.00
2023-02-09T00:22:24.969Z,102932.50
2023-02-09T00:24:53.685Z,102928.19
2023-02-09T00:27:22.578Z,102927.44
2023-02-09T00:29:51.095Z,102932.09
2023-02-09T00:32:19.324Z,102934.06
2023-02-09T00:34:47.763Z,102931.25
2023-02-09T00:37:15.897Z,102930.22
2023-02-09T00:39:47.531Z,102929.03
2023-02-09T00:42:15.897Z,102918.84
2023-02-09T00:44:44.378Z,102920.50
2023-02-09T00:47:12.408Z,102919.44
2023-02-09T00:49:42.118Z,102913.53
2023-02-09T00:52:10.302Z,102919.06
2023-02-09T00:54:38.777Z,102916.22
2023-02-09T00:57:06.941Z,102921.91
2023-02-09T00:59:36.288Z,102919.88
2023-02-09T01:02:04.571Z,102928.00
2023-02-09T01:04:33.893Z,102920.72
2023-02-09T01:07:02.055Z,102924.16
2023-02-09T01:09:30.675Z,102926.19
2023-02-09T01:11:58.886Z,102917.47
2023-02-09T01:14:27.561Z,102912.00
2023-02-09T01:16:55.606Z,102922.31
2023-02-09T01:19:24.004Z,102916.44
2023-02-09T01:21:52.087Z,102920.91
2023-02-09T01:24:20.622Z,102915.25
2023-02-09T01:26:49.616Z,102922.75
2023-02-09T01:29:20.192Z,102918.69
2023-02-09T01:31:49.439Z,102917.47
2023-02-09T01:34:19.726Z,102926.81
2023-02-09T01:36:49.953Z,102919.72
2023-02-09T01:39:18.353Z,102917.84
2023-02-09T01:41:46.545Z,102911.59
2023-02-09T01:44:14.959Z,102919.06
2023-02-09T01:46:44.636Z,102914.44
2023-02-09T01:49:23.086Z,102901.25
2023-02-09T01:51:56.017Z,102897.38
2023-02-09T01:54:33.236Z,102901.25
2023-02-09T01:57:08.530Z,102894.34
2023-02-09T01:59:39.877Z,102886.38
2023-02-09T02:02:09.196Z,102889.47
2023-02-09T02:04:39.620Z,102889.06
2023-02-09T02:07:31.606Z,102889.22
2023-02-09T02:10:01.584Z,102885.38
2023-02-09T02:12:31.055Z,102887.84
2023-02-09T02:14:59.484Z,102878.91
2023-02-09T02:17:49.355Z,102871.44
2023-02-09T02:20:36.981Z,102864.50
2023-02-09T02:23:08.853Z,102863.09
2023-02-09T02:26:07.004Z,102865.34
2023-02-09T02:28:43.662Z,102856.78
2023-02-09T02:31:30.570Z,102849.91
2023-02-09T02:34:17.174Z,102856.00
2023-02-09T02:37:06.880Z,102858.22
2023-02-09T02:39:44.200Z,102851.31
2023-02-09T02:42:51.960Z,102852.94
2023-02-09T02:45:39.210Z,102835.69
2023-02-09T02:48:31.653Z,102836.28
2023-02-09T02:51:06.224Z,102827.00
2023-02-09T02:53:38.014Z,102827.19
2023-02-09T02:56:21.586Z,102826.78
2023-02-09T02:58:52.959Z,102825.34
2023-02-09T03:01:25.627Z,102828.22
2023-02-09T03:03:55.307Z,102829.19
2023-02-09T03:06:23.418Z,102829.81
2023-02-09T03:08:57.758Z,102823.13
2023-02-09T03:11:32.264Z,102820.88
2023-02-09T03:14:28.279Z,102822.69
2023-02-09T03:17:27.458Z,102814.00
2023-02-09T03:20:14.017Z,102822.88
2023-02-09T03:22:52.767Z,102823.03
2023-02-09T03:25:31.857Z,102822.69
2023-02-09T03:28:08.299Z,102818.06
2023-02-09T03:30:42.311Z,102815.81
2023-02-09T03:33:27.735Z,102817.41
2023-02-09T03:35:59.454Z,102816.59
2023-02-09T03:38:30.280Z,102819.88
2023-02-09T03:40:58.595Z,102812.16
2023-02-09T03:43:46.779Z,102808.31
2023-02-09T03:46:15.386Z,102808.13
2023-02-09T03:48:43.318Z,102813.97
2023-02-09T03:51:13.218Z,102812.13
2023-02-09T03:53:41.115Z,102811.53
2023-02-09T03:56:09.530Z,102812.75
2023-02-09T03:58:37.870Z,102810.31
2023-02-09T04:01:11.559Z,102816.38
2023-02-09T04:03:40.135Z,102810.69
2023-02-09T04:06:10.538Z,102823.69
2023-02-09T04:08:38.891Z,102822.66
2023-02-09T04:11:07.221Z,102823.69
2023-02-09T04:13:35.427Z,102815.59
2023-02-09T04:16:03.863Z,102814.97
2023-02-09T04:18:31.809Z,102808.69
2023-02-09T04:20:59.979Z,102817.59
2023-02-09T04:23:27.944Z,102810.31
2023-02-09T04:25:56.689Z,102812.75
2023-02-09T04:28:24.720Z,102808.66
2023-02-09T04:30:54.643Z,102814.50
2023-02-09T04:33:24.253Z,102815.94
2023-02-09T04:35:52.966Z,102812.31
2023-02-09T04:38:22.158Z,102821.84
2023-02-09T04:40:52.905Z,102811.31
2023-02-09T04:43:22.670Z,102814.16
2023-02-09T04:45:51.368Z,102806.03
2023-02-09T04:48:21.614Z,102808.28
2023-02-09T04:50:50.632Z,102813.53
2023-02-09T04:53:20.252Z,102805.38
2023-02-09T04:55:49.124Z,102811.88
2023-02-09T04:58:37.986Z,102808.06
2023-02-09T05:01:08.243Z,102805.81
2023-02-09T05:03:36.200Z,102811.66
2023-02-09T05:06:06.227Z,102807.84
2023-02-09T05:08:34.356Z,102810.47
2023-02-09T05:11:02.575Z,102813.91
2023-02-09T05:13:30.621Z,102807.97
2023-02-09T05:15:59.016Z,102811.06
2023-02-09T05:18:26.948Z,102810.59
2023-02-09T05:20:55.326Z,102813.16
2023-02-09T05:23:23.394Z,102814.84
2023-02-09T05:25:51.727Z,102815.59
2023-02-09T05:28:19.712Z,102804.50
2023-02-09T05:30:53.843Z,102808.13
2023-02-09T05:33:22.678Z,102807.06
2023-02-09T05:35:52.526Z,102812.44
2023-02-09T05:38:20.610Z,102814.06
2023-02-09T05:40:49.208Z,102811.44
2023-02-09T05:43:17.316Z,102809.84
2023-02-09T05:45:46.093Z,102809.34
2023-02-09T05:48:14.145Z,102813.25
2023-02-09T05:50:42.436Z,102816.56
2023-02-09T05:53:10.565Z,102808.84
2023-02-09T05:55:38.994Z,102811.88
2023-02-09T05:58:06.927Z,102815.09
2023-02-09T06:00:35.313Z,102816.78
2023-02-09T06:03:03.291Z,102812.63
2023-02-09T06:05:31.762Z,102817.22
2023-02-09T06:07:59.748Z,102812.56
2023-02-09T06:10:28.120Z,102804.59
2023-02-09T06:12:56.119Z,102808.22
2023-02-09T06:15:24.543Z,102803.44
2023-02-09T06:17:52.670Z,102801.78
2023-02-09T06:20:21.020Z,102805.53
2023-02-09T06:22:48.998Z,102807.16
2023-02-09T06:25:18.341Z,102811.81
2023-02-09T06:27:46.224Z,102809.72
2023-02-09T06:30:14.748Z,102812.72
2023-02-09T06:32:42.781Z,102808.59
2023-02-09T06:35:11.095Z,102808.59
2023-02-09T06:37:39.013Z,102819.06
2023-02-09T06:40:07.616Z,102815.09
2023-02-09T06:42:44.401Z,102812.50
2023-02-09T06:45:15.668Z,102826.81
2023-02-09T06:47:45.209Z,102821.38
2023-02-09T06:50:15.655Z,102829.25
2023-02-09T06:52:43.953Z,102828.03
2023-02-09T06:55:12.884Z,102832.63
2023-02-09T06:57:41.221Z,102833.69
2023-02-09T07:00:11.758Z,102846.19
2023-02-09T07:02:43.109Z,102834.09
2023-02-09T07:05:13.756Z,102846.25
2023-02-09T07:07:42.340Z,102844.19
2023-02-09T07:10:13.353Z,102852.81
2023-02-09T07:12:43.523Z,102851.28
2023-02-09T07:15:14.340Z,102852.16
2023-02-09T07:17:42.551Z,102850.59
2023-02-09T07:20:11.522Z,102853.81
2023-02-09T07:22:39.490Z,102846.56
2023-02-09T07:25:08.101Z,102847.81
2023-02-09T07:27:36.168Z,102856.38
2023-02-09T07:30:04.729Z,102860.00
2023-02-09T07:32:34.187Z,102858.13
2023-02-09T07:35:02.536Z,102868.50
2023-02-09T07:37:30.703Z,102868.94
2023-02-09T07:39:59.112Z,102871.13
2023-02-09T07:42:27.197Z,102872.72
2023-02-09T07:45:02.437Z,102884.13
2023-02-09T07:47:30.440Z,102875.84
2023-02-09T07:49:58.833Z,102873.44
2023-02-09T07:52:26.802Z,102882.56
2023-02-09T07:54:55.167Z,102883.38
2023-02-09T07:57:23.228Z,102877.63
2023-02-09T07:59:51.816Z,102878.22
2023-02-09T08:02:30.023Z,102880.44
2023-02-09T08:05:00.900Z,102887.09
2023-02-09T08:07:29.332Z,102887.28
2023-02-09T08:09:57.915Z,102886.47
2023-02-09T08:12:48.289Z,102877.69
2023-02-09T08:15:21.324Z,102877.59
2023-02-09T08:17:55.652Z,102881.94
2023-02-09T08:20:27.684Z,102875.09
2023-02-09T08:23:01.198Z,102881.47
2023-02-09T08:25:29.731Z,102875.03
2023-02-09T08:27:58.090Z,102875.06
2023-02-09T08:30:26.524Z,102881.25
2023-02-09T08:32:54.421Z,102880.72
2023-02-09T08:35:22.691Z,102879.25
2023-02-09T08:37:50.565Z,102879.09
2023-02-09T08:40:19.140Z,102885.53
2023-02-09T08:42:47.150Z,102881.41
2023-02-09T08:45:15.411Z,102888.00
2023-02-09T08:47:43.397Z,102897.31
2023-02-09T08:50:11.686Z,102893.34
2023-02-09T08:52:39.593Z,102897.63
2023-02-09T08:55:08.121Z,102896.25
2023-02-09T08:57:44.110Z,102906.50
2023-02-09T09:00:13.794Z,102905.97
2023-02-09T09:02:41.802Z,102901.91
2023-02-09T09:05:10.407Z,102908.47
2023-02-09T09:07:38.296Z,102907.03
2023-02-09T09:10:09.202Z,102913.84
2023-02-09T09:12:38.031Z,102906.81
2023-02-09T09:15:06.989Z,102907.16
2023-02-09T09:17:34.987Z,102910.88
2023-02-09T09:20:03.892Z,102909.97
2023-02-09T09:22:31.770Z,102907.63
2023-02-09T09:25:00.130Z,102910.59
2023-02-09T09:27:28.566Z,102917.06
2023-02-09T09:29:56.888Z,102905.00
2023-02-09T09:32:25.531Z,102913.34
2023-02-09T09:34:55.596Z,102904.22
2023-02-09T09:37:24.297Z,102906.31
2023-02-09T09:39:53.191Z,102908.28
2023-02-09T09:42:48.584Z,102908.97
2023-02-09T09:45:21.283Z,102915.53
2023-02-09T09:47:49.696Z,102914.13
2023-02-09T09:50:24.479Z,102909.16
2023-02-09T09:52:58.968Z,102919.59
2023-02-09T09:55:33.941Z,102918.88
2023-02-09T09:58:05.691Z,102926.63
2023-02-09T10:00:40.751Z,102922.00
2023-02-09T10:03:16.794Z,102925.09
2023-02-09T10:05:48.593Z,102919.34
2023-02-09T10:08:29.761Z,102927.16
2023-02-09T10:11:09.205Z,102922.38
2023-02-09T10:13:44.744Z,102916.97
2023-02-09T10:16:17.483Z,102908.13
2023-02-09T10:18:49.373Z,102909.72
2023-02-09T10:21:18.114Z,102911.06
2023-02-09T10:23:51.200Z,102912.75
2023-02-09T10:26:25.734Z,102909.81
2023-02-09T10:28:56.726Z,102909.00
2023-02-09T10:31:39.370Z,102908.91
2023-02-09T10:34:28.713Z,102906.81
2023-02-09T10:37:34.512Z,102903.63
2023-02-09T10:40:16.148Z,102911.94
2023-02-09T10:42:56.429Z,102900.06
2023-02-09T10:45:40.240Z,102890.25
2023-02-09T10:48:14.242Z,102888.44
2023-02-09T10:51:05.580Z,102880.69
2023-02-09T10:53:41.243Z,102871.81
2023-02-09T10:56:21.978Z,102872.44
2023-02-09T10:58:52.098Z,102860.41
2023-02-09T11:01:26.114Z,102862.91
2023-02-09T11:04:03.645Z,102860.25
2023-02-09T11:07:02.405Z,102857.41
2023-02-09T11:09:38.165Z,102844.94
2023-02-09T11:12:11.382Z,102843.84
2023-02-09T11:14:40.320Z,102837.84
2023-02-09T11:17:23.199Z,102829.84
2023-02-09T11:20:23.537Z,102831.31
2023-02-09T11:23:15.574Z,102831.31
2023-02-09T11:25:57.809Z,102834.13
2023-02-09T11:28:47.697Z,102823.19
2023-02-09T11:31:37.010Z,102823.00
2023-02-09T11:34:13.634Z,102827.19
2023-02-09T11:37:19.354Z,102822.44
2023-02-09T11:40:22.386Z,102821.28
2023-02-09T11:43:35.694Z,102826.09
2023-02-09T11:46:17.379Z,102813.06
2023-02-09T11:48:50.547Z,102814.63
2023-02-09T11:51:27.026Z,102810.44
2023-02-09T11:54:10.934Z,102808.03
2023-02-09T11:56:43.054Z,102792.66
2023-02-09T11:59:11.255Z,102791.00
2023-02-09T12:01:53.493Z,102788.78
2023-02-09T12:04:43.838Z,102794.75
2023-02-09T12:07:20.176Z,102789.47
2023-02-09T12:10:10.083Z,102781.91
2023-02-09T12:12:46.296Z,102774.72
2023-02-09T12:15:18.488Z,102777.53
2023-02-09T12:17:54.277Z,102778.28
2023-02-09T12:20:28.465Z,102776.22
2023-02-09T12:23:03.166Z,102769.75
2023-02-09T12:25:53.190Z,102765.38
2023-02-09T12:28:30.425Z,102763.06
2023-02-09T12:31:02.615Z,102752.41
2023-02-09T12:33:36.061Z,102742.69
2023-02-09T12:36:10.319Z,102748.19
2023-02-09T12:39:04.081Z,102755.13
2023-02-09T12:41:32.532Z,102745.09
2023-02-09T12:44:06.471Z,102744.06
2023-02-09T12:46:54.941Z,102731.09
2023-02-09T12:49:29.113Z,102723.34
2023-02-09T12:52:00.773Z,102739.63
2023-02-09T12:54:34.769Z,102740.13
2023-02-09T12:57:15.006Z,102736.06
2023-02-09T13:00:01.285Z,102733.31
2023-02-09T13:02:46.701Z,102722.94
2023-02-09T13:05:34.332Z,102729.06
2023-02-09T13:08:11.273Z,102723.72
2023-02-09T13:10:47.541Z,102723.47
2023-02-09T13:13:33.702Z,102725.72
2023-02-09T13:16:03.373Z,102721.84
2023-02-09T13:18:52.536Z,102719.53
2023-02-09T13:21:38.429Z,102719.53
2023-02-09T13:24:22.328Z,102717.47
2023-02-09T13:26:54.301Z,102717.13
2023-02-09T13:29:28.362Z,102712.31
2023-02-09T13:32:02.370Z,102722.06
2023-02-09T13:34:42.477Z,102720.41
2023-02-09T13:37:50.215Z,102705.88
2023-02-09T13:40:24.812Z,102715.59
2023-02-09T13:43:10.865Z,102713.00
2023-02-09T13:45:54.743Z,102713.69
2023-02-09T13:48:35.127Z,102710.13
2023-02-09T13:51:15.120Z,102716.84
2023-02-09T13:53:58.893Z,102709.69
2023-02-09T13:56:27.098Z,102706.56
2023-02-09T13:58:56.260Z,102715.34
2023-02-09T14:01:30.474Z,102713.78
2023-02-09T14:04:30.470Z,102719.31
2023-02-09T14:07:08.388Z,102713.31
2023-02-09T14:10:01.809Z,102715.78
2023-02-09T14:13:03.869Z,102704.63
2023-02-09T14:16:04.167Z,102700.72
2023-02-09T14:18:44.723Z,102707.66
2023-02-09T14:21:15.463Z,102707.06
2023-02-09T14:23:47.126Z,102708.03
2023-02-09T14:26:15.319Z,102708.25
2023-02-09T14:28:49.395Z,102702.34
2023-02-09T14:31:26.786Z,102698.97
2023-02-09T14:33:57.033Z,102701.09
2023-02-09T14:36:30.942Z,102701.31
2023-02-09T14:39:17.041Z,102700.84
2023-02-09T14:42:18.379Z,102699.66
2023-02-09T14:44:58.975Z,102701.22
2023-02-09T14:47:45.812Z,102700.81
2023-02-09T14:50:24.196Z,102700.88
2023-02-09T14:53:11.194Z,102693.53
2023-02-09T14:55:41.005Z,102697.91
2023-02-09T14:58:31.976Z,102690.00
2023-02-09T15:01:02.876Z,102689.25
2023-02-09T15:03:30.952Z,102686.91
2023-02-09T15:06:02.566Z,102686.47
2023-02-09T15:08:33.873Z,102693.16
2023-02-09T15:11:28.335Z,102683.28
2023-02-09T15:14:04.260Z,102692.88
2023-02-09T15:16:32.733Z,102690.38
2023-02-09T15:19:01.425Z,102683.56
2023-02-09T15:21:29.715Z,102691.63
2023-02-09T15:23:57.685Z,102697.72
2023-02-09T15:26:27.943Z,102688.38
2023-02-09T15:28:55.892Z,102685.97
2023-02-09T15:31:25.017Z,102696.38
2023-02-09T15:33:52.983Z,102689.06
2023-02-09T15:36:29.159Z,102690.00
2023-02-09T15:38:57.273Z,102695.84
2023-02-09T15:41:44.002Z,102691.34
2023-02-09T15:44:39.401Z,102694.06
2023-02-09T15:47:26.051Z,102697.28
2023-02-09T15:49:54.020Z,102703.25
2023-02-09T15:52:22.594Z,102710.03
2023-02-09T15:54:52.793Z,102693.34
2023-02-09T15:57:25.759Z,102695.94
2023-02-09T15:59:53.857Z,102696.69
2023-02-09T16:02:22.556Z,102698.03
2023-02-09T16:04:50.585Z,102702.09
2023-02-09T16:07:25.272Z,102705.06
2023-02-09T16:09:53.155Z,102703.13
2023-02-09T16:12:21.457Z,102707.50
2023-02-09T16:14:50.077Z,102706.13
2023-02-09T16:17:19.363Z,102703.94
2023-02-09T16:19:49.207Z,102706.56
2023-02-09T16:22:19.910Z,102715.81
2023-02-09T16:24:48.991Z,102713.88
2023-02-09T16:27:28.810Z,102707.94
2023-02-09T16:29:58.444Z,102714.19
2023-02-09T16:32:28.776Z,102715.13
2023-02-09T16:35:07.364Z,102710.47
2023-02-09T16:37:46.005Z,102719.75
2023-02-09T16:40:33.386Z,102712.72
2023-02-09T16:43:02.050Z,102713.78
2023-02-09T16:45:37.484Z,102715.78
2023-02-09T16:48:06.049Z,102718.38
2023-02-09T16:50:38.310Z,102717.19
2023-02-09T16:53:33.019Z,102716.97
2023-02-09T16:56:05.987Z,102716.50
2023-02-09T16:58:34.241Z,102713.94
2023-02-09T17:01:02.821Z,102723.44
2023-02-09T17:03:35.076Z,102723.44
2023-02-09T17:06:03.368Z,102727.94
2023-02-09T17:08:35.029Z,102723.31
2023-02-09T17:11:04.372Z,102724.00
2023-02-09T17:13:32.736Z,102721.94
2023-02-09T17:16:04.148Z,102726.31
2023-02-09T17:18:37.655Z,102728.63
2023-02-09T17:21:14.697Z,102731.16
2023-02-09T17:23:43.997Z,102734.97
2023-02-09T17:26:13.540Z,102733.22
2023-02-09T17:28:43.126Z,102743.06
2023-02-09T17:31:47.015Z,102739.44
2023-02-09T17:34:20.520Z,102739.13
2023-02-09T17:36:48.506Z,102734.34
2023-02-09T17:39:19.247Z,102738.03
2023-02-09T17:41:50.310Z,102745.91
2023-02-09T17:44:39.549Z,102739.66
2023-02-09T17:47:16.780Z,102745.69
2023-02-09T17:49:45.184Z,102743.84
2023-02-09T17:52:18.174Z,102742.31
2023-02-09T17:54:47.168Z,102745.28
2023-02-09T17:57:17.258Z,102746.25
2023-02-09T17:59:47.160Z,102743.31
2023-02-09T18:02:17.911Z,102749.84
2023-02-09T18:04:46.382Z,102754.91
2023-02-09T18:07:20.408Z,102745.31
2023-02-09T18:09:48.991Z,102746.47
2023-02-09T18:12:23.141Z,102757.03
2023-02-09T18:14:51.397Z,102762.84
2023-02-09T18:17:19.646Z,102759.19
2023-02-09T18:19:48.192Z,102760.44
2023-02-09T18:22:20.264Z,102769.44
2023-02-09T18:24:49.078Z,102772.88
2023-02-09T18:27:21.114Z,102776.31
2023-02-09T18:29:49.586Z,102778.03
2023-02-09T18:32:17.976Z,102774.47
2023-02-09T18:34:46.242Z,102779.25
2023-02-09T18:37:16.040Z,102781.34
2023-02-09T18:39:46.940Z,102780.28
2023-02-09T18:42:16.118Z,102784.97
2023-02-09T18:44:44.610Z,102787.19
2023-02-09T18:47:12.668Z,102781.06
2023-02-09T18:49:40.952Z,102785.16
2023-02-09T18:52:10.441Z,102786.72
2023-02-09T18:54:38.653Z,102788.44
2023-02-09T18:57:06.669Z,102791.91
2023-02-09T18:59:34.982Z,102790.19
2023-02-09T19:02:02.997Z,102795.34
2023-02-09T19:04:31.307Z,102794.22
2023-02-09T19:06:59.347Z,102788.66
2023-02-09T19:09:27.857Z,102790.97
2023-02-09T19:11:55.815Z,102796.13
2023-02-09T19:14:39.161Z,102797.84
2023-02-09T19:17:10.251Z,102796.94
2023-02-09T19:19:39.082Z,102794.72
2023-02-09T19:22:07.785Z,102803.03
2023-02-09T19:24:36.289Z,102803.03
2023-02-09T19:27:06.950Z,102804.53
2023-02-09T19:29:38.026Z,102808.63
2023-02-09T19:32:06.344Z,102813.16
2023-02-09T19:34:37.215Z,102802.84
2023-02-09T19:37:06.903Z,102802.56
2023-02-09T19:39:38.403Z,102807.13
2023-02-09T19:42:06.716Z,102809.09
2023-02-09T19:44:36.208Z,102811.53
2023-02-09T19:47:04.293Z,102805.97
2023-02-09T19:49:34.289Z,102815.34
2023-02-09T19:52:02.667Z,102814.50
2023-02-09T19:54:31.531Z,102813.09
2023-02-09T19:57:00.088Z,102818.63
2023-02-09T19:59:28.303Z,102815.41
2023-02-09T20:01:56.370Z,102817.09
2023-02-09T20:04:24.701Z,102822.00
2023-02-09T20:06:56.304Z,102817.91
2023-02-09T20:09:25.114Z,102815.72
2023-02-09T20:11:53.039Z,102815.72
2023-02-09T20:14:22.054Z,102811.06
2023-02-09T20:16:49.982Z,102811.69
2023-02-09T20:19:18.222Z,102813.31
2023-02-09T20:21:46.493Z,102817.44
2023-02-09T20:24:15.336Z,102820.50
2023-02-09T20:26:46.330Z,102817.25
2023-02-09T20:29:16.936Z,102822.13
2023-02-09T20:31:44.938Z,102828.88
2023-02-09T20:34:15.410Z,102828.28
2023-02-09T20:36:46.324Z,102826.69
2023-02-09T20:39:16.623Z,102824.69
2023-02-09T20:42:05.144Z,102823.44
2023-02-09T20:44:53.258Z,102822.66
2023-02-09T20:47:21.300Z,102824.28
2023-02-09T20:49:49.684Z,102822.50
2023-02-09T20:52:17.750Z,102822.06
2023-02-09T20:54:46.012Z,102824.94
2023-02-09T20:57:13.937Z,102814.41
2023-02-09T20:59:42.764Z,102819.50
2023-02-09T21:02:15.321Z,102818.06
2023-02-09T21:04:43.602Z,102818.88
2023-02-09T21:07:11.641Z,102819.06
2023-02-09T21:09:39.979Z,102824.56
2023-02-09T21:12:08.340Z,102816.41
2023-02-09T21:14:44.170Z,102822.72
2023-02-09T21:17:12.771Z,102824.13
2023-02-09T21:19:41.203Z,102821.72
2023-02-09T21:22:09.398Z,102822.50
2023-02-09T21:24:39.280Z,102822.34
2023-02-09T21:27:07.276Z,102819.28
2023-02-09T21:29:36.027Z,102823.31
2023-02-09T21:32:06.980Z,102817.22
2023-02-09T21:34:36.022Z,102820.47
2023-02-09T21:37:04.006Z,102820.47
2023-02-09T21:39:32.373Z,102818.47
2023-02-09T21:42:29.941Z,102822.31
2023-02-09T21:44:59.756Z,102822.50
2023-02-09T21:47:31.915Z,102817.84
2023-02-09T21:50:00.713Z,102821.31
2023-02-09T21:52:30.238Z,102810.94
2023-02-09T21:54:58.600Z,102806.31
2023-02-09T21:57:26.963Z,102807.88
2023-02-09T21:59:55.507Z,102807.84
2023-02-09T22:02:23.464Z,102811.91
2023-02-09T22:04:52.922Z,102810.47
2023-02-09T22:07:20.884Z,102801.97
2023-02-09T22:09:49.080Z,102805.63
2023-02-09T22:12:16.937Z,102807.25
2023-02-09T22:14:45.811Z,102802.44
2023-02-09T22:17:13.699Z,102811.88
2023-02-09T22:19:42.065Z,102803.38
2023-02-09T22:22:11.141Z,102808.69
2023-02-09T22:24:39.431Z,102805.34
2023-02-09T22:27:07.346Z,102804.94
2023-02-09T22:29:35.815Z,102809.75
2023-02-09T22:32:03.817Z,102809.56
2023-02-09T22:34:32.085Z,102812.56
2023-02-09T22:36:59.905Z,102797.59
2023-02-09T22:39:28.169Z,102802.91
2023-02-09T22:41:58.941Z,102805.72
2023-02-09T22:44:30.875Z,102798.72
2023-02-09T22:46:58.890Z,102803.97
2023-02-09T22:49:27.183Z,102805.38
2023-02-09T22:51:55.368Z,102804.22
2023-02-09T22:54:23.650Z,102799.53
2023-02-09T22:56:52.151Z,102798.31
2023-02-09T22:59:20.658Z,102796.78
2023-02-09T23:01:48.820Z,102786.03
2023-02-09T23:04:17.184Z,102790.13
2023-02-09T23:06:45.303Z,102783.22
2023-02-09T23:09:14.801Z,102787.94
2023-02-09T23:11:42.728Z,102782.44
2023-02-09T23:14:11.604Z,102781.75
2023-02-09T23:16:41.426Z,102779.13
2023-02-09T23:19:13.706Z,102778.44
2023-02-09T23:21:44.773Z,102776.78
2023-02-09T23:24:15.119Z,102776.84
2023-02-09T23:26:43.118Z,102781.59
2023-02-09T23:29:14.335Z,102780.78
2023-02-09T23:31:43.663Z,102783.97
2023-02-09T23:34:17.207Z,102781.91
2023-02-09T23:36:45.840Z,102780.88
2023-02-09T23:39:19.845Z,102779.59
2023-02-09T23:41:47.710Z,102778.72
2023-02-09T23:44:16.220Z,102773.44
2023-02-09T23:46:44.949Z,102766.16
2023-02-09T23:49:13.158Z,102767.13
2023-02-09T23:51:40.988Z,102766.25
2023-02-09T23:54:10.868Z,102759.69
2023-02-09T23:56:39.370Z,102765.72
2023-02-09T23:59:11.692Z,102763.53
